Time;durP1;ratioP1;P1;durP2;ratioP2;P2;SDS_P1;SDS_P2;PMS_P1;PMS_P2;Temp;Humidity;BMP_temperature;BMP_pressure;BME280_temperature;BME280_humidity;BME280_pressure;Samples;Min_cycle;Max_cycle;Signal;HPM_P1;HPM_P2
2023/01/08 00:01:07;;;;;;;2.75;0.82;;;23.20;88.10;;;;;;5069183;28;20958;-84
2023/01/08 00:03:35;;;;;;;6.93;1.00;;;23.60;86.10;;;;;;5049625;28;20405;-85
2023/01/08 00:06:03;;;;;;;3.08;1.10;;;24.20;83.00;;;;;;5060777;28;20393;-84
2023/01/08 00:08:32;;;;;;;3.85;1.10;;;24.90;83.80;;;;;;5071739;28;20382;-85
2023/01/08 00:10:59;;;;;;;4.85;1.13;;;25.30;81.70;;;;;;5058036;28;20395;-83
2023/01/08 00:13:26;;;;;;;4.07;1.20;;;25.30;83.00;;;;;;5068927;28;20374;-82
2023/01/08 00:15:53;;;;;;;2.88;0.95;;;25.10;79.20;;;;;;5066635;28;20422;-81
2023/01/08 00:18:21;;;;;;;4.25;1.10;;;25.00;77.50;;;;;;5066069;28;20391;-87
2023/01/08 00:20:48;;;;;;;2.97;1.20;;;24.50;77.00;;;;;;5064928;28;20379;-87
2023/01/08 00:23:16;;;;;;;6.10;1.13;;;23.70;78.90;;;;;;5061209;28;20369;-84
2023/01/08 00:25:45;;;;;;;2.60;1.05;;;23.30;79.80;;;;;;5046651;28;20898;-81
2023/01/08 00:28:13;;;;;;;2.55;1.08;;;23.40;81.10;;;;;;5071155;28;20382;-87
2023/01/08 00:30:41;;;;;;;3.95;0.90;;;24.20;78.90;;;;;;5052098;28;20750;-88
2023/01/08 00:33:08;;;;;;;3.00;0.98;;;24.60;75.70;;;;;;5071254;28;20478;-83
2023/01/08 00:35:38;;;;;;;2.35;0.93;;;24.60;78.40;;;;;;5069767;28;20406;-85
2023/01/08 00:38:06;;;;;;;3.17;0.80;;;25.10;76.00;;;;;;5063430;28;20736;-84
2023/01/08 00:40:34;;;;;;;3.83;0.98;;;26.00;73.50;;;;;;5064061;28;20744;-83
2023/01/08 00:43:01;;;;;;;2.70;0.90;;;26.70;71.60;;;;;;5063883;28;20370;-82
2023/01/08 00:45:28;;;;;;;2.73;0.90;;;26.60;70.30;;;;;;5069749;28;20397;-82
2023/01/08 00:47:55;;;;;;;3.92;1.10;;;25.80;70.00;;;;;;5070604;28;20431;-81
2023/01/08 00:50:22;;;;;;;3.15;0.98;;;25.10;72.20;;;;;;5070353;28;20472;-85
2023/01/08 00:52:49;;;;;;;3.20;1.20;;;24.40;72.10;;;;;;5033140;28;20381;-93
2023/01/08 00:55:16;;;;;;;2.85;0.90;;;23.80;75.50;;;;;;5051284;28;20430;-87
2023/01/08 00:57:44;;;;;;;4.53;1.00;;;23.70;76.00;;;;;;5051583;28;20395;-84
2023/01/08 01:00:15;;;;;;;4.07;1.00;;;24.00;76.00;;;;;;5049933;28;20407;-88
2023/01/08 01:02:43;;;;;;;13.80;4.03;;;24.30;72.90;;;;;;5064480;28;20370;-82
2023/01/08 01:05:14;;;;;;;2.28;0.82;;;24.50;75.10;;;;;;5051118;28;20488;-79
2023/01/08 01:07:42;;;;;;;2.72;0.90;;;25.50;73.10;;;;;;5051575;28;20459;-83
2023/01/08 01:10:10;;;;;;;3.63;1.00;;;25.90;72.60;;;;;;5050534;28;20852;-86
2023/01/08 01:12:40;;;;;;;2.95;0.85;;;26.20;71.30;;;;;;5051687;28;20379;-83
2023/01/08 01:15:13;;;;;;;2.83;0.80;;;26.50;68.50;;;;;;5043712;28;21267;-82
2023/01/08 01:17:42;;;;;;;2.70;0.90;;;26.40;68.10;;;;;;5051631;28;20376;-84
2023/01/08 01:20:12;;;;;;;3.17;0.90;;;26.60;70.00;;;;;;5047602;28;20498;-82
2023/01/08 01:22:39;;;;;;;2.20;0.90;;;27.30;66.60;;;;;;5049850;28;20783;-82
2023/01/08 01:25:08;;;;;;;2.60;0.80;;;27.90;64.20;;;;;;5051321;28;20394;-80
2023/01/08 01:27:35;;;;;;;7.57;1.63;;;27.60;64.60;;;;;;5050872;28;20867;-86
2023/01/08 01:30:03;;;;;;;9.83;1.50;;;27.90;63.90;;;;;;5051116;28;20371;-86
2023/01/08 01:32:40;;;;;;;2.37;0.90;;;28.20;62.50;;;;;;5107563;27;20382;-87
2023/01/08 01:35:07;;;;;;;3.38;0.90;;;27.60;62.20;;;;;;5104586;28;20376;-82
2023/01/08 01:37:34;;;;;;;3.17;1.13;;;26.80;65.50;;;;;;5108037;28;20867;-86
2023/01/08 01:40:01;;;;;;;2.05;0.90;;;26.50;63.20;;;;;;5107247;28;20368;-81
2023/01/08 01:42:40;;;;;;;2.40;1.00;;;26.20;64.40;;;;;;5107874;28;20376;-85
2023/01/08 01:45:21;;;;;;;2.95;0.90;;;26.90;64.90;;;;;;5091299;28;20370;-82
2023/01/08 01:47:57;;;;;;;2.30;0.80;;;27.30;64.40;;;;;;5087618;28;20413;-81
2023/01/08 01:50:47;;;;;;;3.05;0.98;;;28.10;60.20;;;;;;5087134;28;20388;-81
2023/01/08 01:53:34;;;;;;;2.28;0.70;;;28.80;60.40;;;;;;5087630;28;20729;-81
2023/01/08 01:56:03;;;;;;;2.90;1.00;;;29.60;59.10;;;;;;5087712;28;20361;-85
2023/01/08 01:58:31;;;;;;;5.28;1.88;;;29.70;56.50;;;;;;5087128;28;20442;-86
2023/01/08 02:01:03;;;;;;;2.08;0.80;;;29.50;57.50;;;;;;5087320;28;20385;-83
2023/01/08 02:03:35;;;;;;;2.70;0.90;;;29.50;57.70;;;;;;5087737;28;20373;-85
2023/01/08 02:06:15;;;;;;;3.00;0.90;;;29.30;56.80;;;;;;5087479;28;20479;-84
2023/01/08 02:08:52;;;;;;;2.83;0.80;;;29.60;57.20;;;;;;5077399;28;20381;-88
2023/01/08 02:11:45;;;;;;;1.98;0.70;;;29.60;56.20;;;;;;5086816;28;20406;-88
2023/01/08 02:14:28;;;;;;;3.83;0.98;;;29.20;55.70;;;;;;5084606;28;20417;-80
2023/01/08 02:17:05;;;;;;;4.40;1.00;;;29.40;57.30;;;;;;5087281;28;20865;-85
2023/01/08 02:20:23;;;;;;;1.98;0.80;;;30.10;58.50;;;;;;5087127;28;20430;-81
2023/01/08 02:23:38;;;;;;;11.75;1.58;;;30.70;56.70;;;;;;5024047;28;20480;-84
2023/01/08 02:26:16;;;;;;;6.03;1.20;;;31.10;55.00;;;;;;4927069;29;20448;-81
2023/01/08 02:28:47;;;;;;;2.30;0.90;;;30.40;53.80;;;;;;4926089;29;20399;-87
2023/01/08 02:31:15;;;;;;;2.03;1.00;;;30.10;53.00;;;;;;4926789;29;20985;-81
2023/01/08 02:33:42;;;;;;;3.08;0.80;;;29.50;56.50;;;;;;4927377;29;20509;-86
2023/01/08 02:36:29;;;;;;;2.63;1.00;;;29.00;55.70;;;;;;4926633;29;20422;-85
2023/01/08 02:38:59;;;;;;;3.53;0.90;;;29.10;54.50;;;;;;4925383;29;20397;-83
2023/01/08 02:41:54;;;;;;;3.08;0.85;;;29.30;57.70;;;;;;4928719;29;20924;-82
2023/01/08 02:44:45;;;;;;;2.60;0.90;;;29.60;55.40;;;;;;4914690;29;20384;-81
2023/01/08 02:47:38;;;;;;;1.98;0.77;;;30.20;55.70;;;;;;4914006;29;20392;-79
2023/01/08 02:50:23;;;;;;;1.88;0.80;;;30.60;52.00;;;;;;4915056;29;20404;-82
2023/01/08 02:53:01;;;;;;;2.07;0.80;;;30.70;53.60;;;;;;4909479;29;20396;-81
2023/01/08 02:55:29;;;;;;;1.83;0.80;;;31.50;53.40;;;;;;4915257;29;20444;-83
2023/01/08 02:57:57;;;;;;;4.22;0.88;;;31.00;53.50;;;;;;4940775;28;20940;-82
2023/01/08 03:00:25;;;;;;;3.33;0.93;;;31.60;53.00;;;;;;4998559;28;20396;-80
2023/01/08 03:03:05;;;;;;;2.45;0.80;;;31.50;52.30;;;;;;5081891;28;20466;-86
2023/01/08 03:05:34;;;;;;;2.10;0.90;;;31.10;52.70;;;;;;5094752;28;20364;-89
2023/01/08 03:08:01;;;;;;;2.80;1.00;;;31.40;51.80;;;;;;5075144;28;20374;-85
2023/01/08 03:10:30;;;;;;;2.65;0.93;;;32.00;51.30;;;;;;5072890;28;20773;-84
2023/01/08 03:13:10;;;;;;;2.13;0.80;;;32.90;49.70;;;;;;5072813;28;20490;-85
2023/01/08 03:16:00;;;;;;;3.22;0.90;;;32.80;49.60;;;;;;5073198;28;20370;-79
2023/01/08 03:18:33;;;;;;;2.80;0.70;;;33.50;48.20;;;;;;5063097;28;20393;-83
2023/01/08 03:21:03;;;;;;;2.20;0.87;;;33.70;48.10;;;;;;5072444;28;20363;-77
2023/01/08 03:23:34;;;;;;;2.73;0.97;;;33.30;48.20;;;;;;5084053;28;20380;-85
2023/01/08 03:26:02;;;;;;;2.58;0.90;;;32.90;46.90;;;;;;5091115;28;20375;-86
2023/01/08 03:28:36;;;;;;;3.33;0.90;;;32.10;48.80;;;;;;5071677;28;20991;-85
2023/01/08 03:31:04;;;;;;;3.65;0.93;;;32.20;49.50;;;;;;5066565;28;20412;-83
2023/01/08 03:33:32;;;;;;;2.33;0.80;;;31.70;49.30;;;;;;5090520;28;20368;-78
2023/01/08 03:36:02;;;;;;;2.47;0.60;;;32.10;51.30;;;;;;5072031;28;20738;-82
2023/01/08 03:38:44;;;;;;;3.38;0.85;;;33.20;48.50;;;;;;5072111;28;20868;-87
2023/01/08 03:41:15;;;;;;;2.35;0.85;;;32.70;47.70;;;;;;5077437;28;20472;-82
2023/01/08 03:43:42;;;;;;;2.90;0.70;;;33.20;46.70;;;;;;5074603;28;20382;-84
2023/01/08 03:46:39;;;;;;;2.47;0.80;;;33.40;46.60;;;;;;5071861;28;20381;-87
2023/01/08 03:49:08;;;;;;;2.60;1.00;;;33.70;46.80;;;;;;5081598;28;20384;-83
2023/01/08 03:51:46;;;;;;;2.33;0.80;;;34.30;45.50;;;;;;5073871;28;20763;-83
2023/01/08 03:54:19;;;;;;;5.28;0.95;;;34.40;45.00;;;;;;5066179;28;20378;-82
2023/01/08 03:56:46;;;;;;;2.78;0.85;;;34.40;44.90;;;;;;5085082;28;20573;-79
2023/01/08 03:59:14;;;;;;;1.83;0.80;;;34.70;42.80;;;;;;5076507;28;21158;-80
2023/01/08 04:01:41;;;;;;;2.00;0.80;;;34.40;44.80;;;;;;5087277;28;20396;-80
2023/01/08 04:04:10;;;;;;;1.83;0.70;;;34.40;44.40;;;;;;5086736;28;20732;-86
2023/01/08 04:06:37;;;;;;;1.55;0.80;;;33.70;46.30;;;;;;5072268;28;20412;-83
2023/01/08 04:09:04;;;;;;;3.13;0.93;;;32.60;45.90;;;;;;5087790;28;20466;-85
2023/01/08 04:11:31;;;;;;;1.90;0.90;;;32.70;47.10;;;;;;5077243;28;20441;-83
2023/01/08 04:13:58;;;;;;;2.70;1.00;;;32.60;47.40;;;;;;5086202;28;20414;-83
2023/01/08 04:16:25;;;;;;;4.13;1.00;;;33.00;46.50;;;;;;5071051;28;20382;-82
2023/01/08 04:18:52;;;;;;;3.35;1.30;;;33.30;47.20;;;;;;5073449;28;20382;-86
2023/01/08 04:21:19;;;;;;;4.25;1.42;;;33.90;48.90;;;;;;5064573;28;20379;-87
2023/01/08 04:23:47;;;;;;;4.00;1.40;;;34.40;50.30;;;;;;5090567;28;20364;-87
2023/01/08 04:26:14;;;;;;;4.03;1.42;;;34.50;49.50;;;;;;5092143;28;20384;-90
2023/01/08 04:28:41;;;;;;;5.13;1.50;;;34.50;49.90;;;;;;5093046;28;20364;-87
2023/01/08 04:31:09;;;;;;;6.20;1.50;;;34.50;49.50;;;;;;5084225;28;20405;-88
2023/01/08 04:33:37;;;;;;;5.40;1.45;;;34.70;49.10;;;;;;5070608;28;20473;-87
2023/01/08 04:36:04;;;;;;;4.22;1.48;;;35.10;49.60;;;;;;5069678;28;20370;-88
2023/01/08 04:38:32;;;;;;;8.40;1.60;;;34.70;49.20;;;;;;5070943;28;20382;-88
2023/01/08 04:41:00;;;;;;;3.92;1.60;;;33.90;50.30;;;;;;5071078;28;20433;-87
2023/01/08 04:43:27;;;;;;;5.15;1.42;;;33.30;52.80;;;;;;5069681;28;20389;-89
2023/01/08 04:45:58;;;;;;;5.90;1.70;;;32.70;53.90;;;;;;5070523;28;20462;-90
2023/01/08 04:48:26;;;;;;;5.22;1.60;;;32.30;55.00;;;;;;5074025;28;20391;-87
2023/01/08 04:50:53;;;;;;;4.17;1.60;;;32.40;55.50;;;;;;5080381;28;20402;-87
2023/01/08 04:53:20;;;;;;;8.50;1.60;;;32.50;54.60;;;;;;5070127;28;20389;-88
2023/01/08 04:55:47;;;;;;;5.97;1.70;;;32.30;55.50;;;;;;5070268;28;20750;-89
2023/01/08 04:58:14;;;;;;;4.50;1.50;;;32.70;55.50;;;;;;5070501;28;20370;-88
2023/01/08 05:00:41;;;;;;;5.57;1.52;;;32.60;54.50;;;;;;5070618;28;20469;-89
2023/01/08 05:03:08;;;;;;;4.30;1.40;;;32.70;54.50;;;;;;5071152;28;20381;-88
2023/01/08 05:05:35;;;;;;;5.47;1.50;;;32.70;54.70;;;;;;5070168;28;20432;-89
2023/01/08 05:08:02;;;;;;;3.97;1.40;;;33.00;54.00;;;;;;5070966;28;20381;-89
2023/01/08 05:10:29;;;;;;;4.30;1.42;;;32.90;54.00;;;;;;5070508;28;20397;-89
2023/01/08 05:13:00;;;;;;;4.95;1.63;;;32.60;54.70;;;;;;5069967;28;20401;-88
2023/01/08 05:15:27;;;;;;;3.28;1.50;;;32.60;53.90;;;;;;5070389;28;20370;-89
2023/01/08 05:18:03;;;;;;;4.00;1.20;;;32.70;54.30;;;;;;5070201;28;20508;-88
2023/01/08 05:20:33;;;;;;;4.68;1.50;;;32.70;52.80;;;;;;5069983;28;20889;-87
2023/01/08 05:23:01;;;;;;;6.18;1.40;;;32.50;54.30;;;;;;5057844;28;20865;-88
2023/01/08 05:25:28;;;;;;;3.75;1.33;;;32.80;53.60;;;;;;5070408;28;20385;-88
2023/01/08 05:27:55;;;;;;;6.35;1.55;;;32.40;53.90;;;;;;5070985;28;20378;-85
2023/01/08 05:30:22;;;;;;;4.55;1.48;;;32.30;54.00;;;;;;5071055;28;20377;-87
2023/01/08 05:32:49;;;;;;;3.90;1.45;;;32.30;54.30;;;;;;5070318;28;20398;-88
2023/01/08 05:35:16;;;;;;;4.53;1.48;;;32.10;54.00;;;;;;5071236;28;21720;-84
2023/01/08 05:37:43;;;;;;;3.97;1.40;;;32.20;54.60;;;;;;5074277;28;20390;-87
2023/01/08 05:40:10;;;;;;;6.20;1.63;;;32.60;54.40;;;;;;5071623;28;20863;-81
2023/01/08 05:42:37;;;;;;;4.47;1.50;;;32.50;53.70;;;;;;5072542;28;20524;-90
2023/01/08 05:45:06;;;;;;;5.43;1.58;;;32.50;53.60;;;;;;5072670;28;20546;-90
2023/01/08 05:47:34;;;;;;;5.28;1.40;;;32.50;54.10;;;;;;5073997;28;20386;-90
2023/01/08 05:50:01;;;;;;;5.57;1.50;;;32.60;53.60;;;;;;5086584;28;20925;-86
2023/01/08 05:52:29;;;;;;;4.07;1.48;;;32.60;52.50;;;;;;5081332;28;20411;-85
2023/01/08 05:54:56;;;;;;;3.55;1.40;;;32.50;52.90;;;;;;5081642;28;20421;-90
2023/01/08 05:57:23;;;;;;;4.78;1.40;;;32.50;53.30;;;;;;5087089;28;20813;-88
2023/01/08 05:59:50;;;;;;;3.90;1.40;;;32.30;52.80;;;;;;5084334;28;20373;-90
2023/01/08 06:02:18;;;;;;;4.25;1.30;;;32.30;53.20;;;;;;5080534;28;20793;-88
2023/01/08 06:04:45;;;;;;;6.13;1.60;;;32.30;53.60;;;;;;5082094;28;20384;-88
2023/01/08 06:07:12;;;;;;;4.57;1.40;;;32.30;53.30;;;;;;5076951;28;20471;-86
2023/01/08 06:09:39;;;;;;;4.70;1.27;;;32.20;53.40;;;;;;5081584;28;20441;-86
2023/01/08 06:12:07;;;;;;;5.13;1.60;;;31.80;53.90;;;;;;5074987;28;20437;-92
2023/01/08 06:14:33;;;;;;;5.25;1.60;;;31.90;54.00;;;;;;5073950;28;20376;-82
2023/01/08 06:17:01;;;;;;;3.92;1.30;;;32.10;53.90;;;;;;5074120;28;20386;-80
2023/01/08 06:19:28;;;;;;;3.95;1.25;;;32.10;53.50;;;;;;5084058;28;20380;-86
2023/01/08 06:21:55;;;;;;;4.10;1.48;;;31.90;54.20;;;;;;5090694;28;20401;-86
2023/01/08 06:24:23;;;;;;;3.67;1.40;;;31.70;54.40;;;;;;5076674;28;20412;-88
2023/01/08 06:26:50;;;;;;;4.53;1.40;;;31.80;54.40;;;;;;5086362;28;20779;-85
2023/01/08 06:29:17;;;;;;;5.53;1.50;;;31.70;54.00;;;;;;5093764;28;20376;-93
2023/01/08 06:31:44;;;;;;;4.97;1.60;;;31.50;55.00;;;;;;5078124;28;20409;-86
2023/01/08 06:34:11;;;;;;;4.50;1.50;;;31.30;55.60;;;;;;5085158;28;20406;-86
2023/01/08 06:36:39;;;;;;;6.13;1.50;;;31.10;55.60;;;;;;5087005;28;20391;-90
2023/01/08 06:39:07;;;;;;;5.10;1.60;;;30.70;56.00;;;;;;5080314;28;20384;-84
2023/01/08 06:41:34;;;;;;;5.82;1.45;;;30.70;56.40;;;;;;5082767;28;20929;-85
2023/01/08 06:44:01;;;;;;;4.65;1.50;;;30.70;56.70;;;;;;5070633;28;20390;-87
2023/01/08 06:46:28;;;;;;;4.93;1.63;;;30.80;56.90;;;;;;5073493;28;20397;-92
2023/01/08 06:48:56;;;;;;;6.07;1.67;;;30.70;57.50;;;;;;5073504;28;20393;-90
2023/01/08 06:51:24;;;;;;;5.50;1.60;;;30.70;57.50;;;;;;5075692;28;20936;-86
2023/01/08 06:53:51;;;;;;;4.18;1.52;;;30.60;57.30;;;;;;5082017;28;20383;-93
2023/01/08 06:56:18;;;;;;;6.70;1.50;;;30.90;57.10;;;;;;5090846;28;20450;-88
2023/01/08 06:58:45;;;;;;;5.47;1.48;;;30.90;56.60;;;;;;5083618;28;20391;-89
2023/01/08 07:01:16;;;;;;;5.80;1.50;;;30.90;56.80;;;;;;5097265;28;20451;-86
2023/01/08 07:03:43;;;;;;;6.28;1.50;;;30.70;57.30;;;;;;5084948;28;20381;-83
2023/01/08 07:06:19;;;;;;;5.80;1.52;;;30.80;57.40;;;;;;5103745;28;20439;-85
2023/01/08 07:08:47;;;;;;;8.23;1.80;;;30.80;57.00;;;;;;5101451;28;20374;-83
2023/01/08 07:11:15;;;;;;;4.95;1.63;;;30.90;57.10;;;;;;5090305;28;20401;-91
2023/01/08 07:13:42;;;;;;;6.07;1.60;;;30.80;57.20;;;;;;5085860;28;20384;-88
2023/01/08 07:16:12;;;;;;;8.27;1.70;;;30.30;58.30;;;;;;5086287;28;20383;-87
2023/01/08 07:18:41;;;;;;;3.85;1.50;;;30.40;58.40;;;;;;5080937;28;20535;-89
2023/01/08 07:21:08;;;;;;;5.15;1.65;;;30.70;58.20;;;;;;5093876;28;20569;-91
2023/01/08 07:23:37;;;;;;;5.43;1.67;;;30.40;58.20;;;;;;5077774;28;20394;-87
2023/01/08 07:26:07;;;;;;;4.88;1.55;;;30.30;58.50;;;;;;5086620;28;20384;-88
2023/01/08 07:28:34;;;;;;;5.13;1.60;;;30.20;58.10;;;;;;5091448;28;20376;-87
2023/01/08 07:31:06;;;;;;;6.43;2.25;;;29.80;58.80;;;;;;5070167;28;20905;-84
2023/01/08 07:33:34;;;;;;;9.60;2.40;;;29.80;59.30;;;;;;5074652;28;20403;-87
2023/01/08 07:36:01;;;;;;;5.60;1.80;;;29.80;59.00;;;;;;5081253;28;20395;-84
2023/01/08 07:38:28;;;;;;;5.18;1.67;;;29.50;59.50;;;;;;5089891;28;20736;-85
2023/01/08 07:40:57;;;;;;;6.28;1.80;;;29.40;60.00;;;;;;5086570;28;20384;-89
2023/01/08 07:43:25;;;;;;;7.15;1.80;;;29.60;59.70;;;;;;5086113;28;20364;-85
2023/01/08 07:45:52;;;;;;;4.40;1.67;;;29.60;59.60;;;;;;5082806;28;20468;-83
2023/01/08 07:48:19;;;;;;;5.20;1.38;;;29.30;60.00;;;;;;5086152;28;20998;-87
2023/01/08 07:50:46;;;;;;;5.85;1.30;;;28.90;60.40;;;;;;5085914;28;20438;-82
2023/01/08 07:53:16;;;;;;;5.57;1.60;;;28.90;61.00;;;;;;5073464;28;20466;-87
2023/01/08 07:55:42;;;;;;;5.82;1.77;;;28.50;61.80;;;;;;5091810;28;20438;-85
2023/01/08 07:58:11;;;;;;;7.03;1.50;;;28.50;61.90;;;;;;5085015;28;20419;-88
2023/01/08 08:00:38;;;;;;;5.35;1.70;;;28.60;62.30;;;;;;5089552;28;20443;-84
2023/01/08 08:03:07;;;;;;;5.82;1.50;;;28.50;62.00;;;;;;5091259;28;20458;-82
2023/01/08 08:05:35;;;;;;;4.28;1.40;;;28.40;62.40;;;;;;5091183;28;20373;-87
2023/01/08 08:08:06;;;;;;;6.40;1.58;;;28.20;63.20;;;;;;5082239;28;20420;-81
2023/01/08 08:10:33;;;;;;;4.82;1.50;;;28.10;63.10;;;;;;5071514;28;20546;-83
2023/01/08 08:13:00;;;;;;;4.78;1.40;;;28.00;63.70;;;;;;5080166;28;20483;-84
2023/01/08 08:15:27;;;;;;;5.28;1.40;;;27.70;63.20;;;;;;5079688;28;20386;-91
2023/01/08 08:17:54;;;;;;;7.05;1.70;;;26.90;65.50;;;;;;5073043;28;20386;-93
2023/01/08 08:20:21;;;;;;;6.65;1.50;;;26.50;66.40;;;;;;5074786;28;20475;-88
2023/01/08 08:22:48;;;;;;;7.50;1.58;;;26.20;66.80;;;;;;5075760;28;20854;-87
2023/01/08 08:25:16;;;;;;;6.57;1.60;;;26.00;67.50;;;;;;5073036;28;20374;-87
2023/01/08 08:27:44;;;;;;;7.15;1.50;;;25.60;68.50;;;;;;5071240;28;20512;-90
2023/01/08 08:30:12;;;;;;;6.63;1.50;;;25.30;69.40;;;;;;5071324;28;20389;-88
2023/01/08 08:32:39;;;;;;;5.97;1.50;;;25.00;70.20;;;;;;5071083;28;20416;-81
2023/01/08 08:35:07;;;;;;;6.80;1.60;;;24.80;70.30;;;;;;5074136;28;20380;-90
2023/01/08 08:37:34;;;;;;;5.00;1.40;;;24.70;71.60;;;;;;5071568;28;20397;-93
2023/01/08 08:40:01;;;;;;;7.47;1.40;;;24.50;72.10;;;;;;5071198;28;20378;-89
2023/01/08 08:42:28;;;;;;;4.90;1.50;;;24.40;72.40;;;;;;5071574;28;20418;-88
2023/01/08 08:44:55;;;;;;;5.63;1.40;;;24.20;72.70;;;;;;5072405;28;20377;-88
2023/01/08 08:47:22;;;;;;;6.37;1.47;;;24.20;73.20;;;;;;5071250;28;20393;-86
2023/01/08 08:49:49;;;;;;;5.37;1.40;;;24.00;73.10;;;;;;5072751;28;20707;-90
2023/01/08 08:52:17;;;;;;;5.88;1.50;;;23.80;73.70;;;;;;5081379;28;20397;-82
2023/01/08 08:54:44;;;;;;;4.50;1.35;;;23.70;74.50;;;;;;5071088;28;20503;-83
2023/01/08 08:57:11;;;;;;;5.20;1.40;;;23.60;75.30;;;;;;5070409;28;20389;-87
2023/01/08 08:59:38;;;;;;;5.28;1.50;;;23.50;75.80;;;;;;5073369;28;20382;-90
2023/01/08 09:02:06;;;;;;;6.25;1.50;;;23.40;76.70;;;;;;5091618;28;20377;-88
2023/01/08 09:04:34;;;;;;;7.70;1.70;;;23.30;76.90;;;;;;5077301;28;20382;-87
2023/01/08 09:07:02;;;;;;;4.38;1.35;;;23.10;77.60;;;;;;5071084;28;20451;-85
2023/01/08 09:09:29;;;;;;;7.03;1.47;;;22.90;78.30;;;;;;5082602;28;20402;-89
2023/01/08 09:11:56;;;;;;;5.50;1.40;;;22.70;79.10;;;;;;5079607;28;20487;-84
2023/01/08 09:14:24;;;;;;;7.05;1.30;;;22.60;79.70;;;;;;5078127;28;20378;-82
2023/01/08 09:16:51;;;;;;;7.80;1.50;;;22.40;80.50;;;;;;5082969;28;20875;-82
2023/01/08 09:19:18;;;;;;;5.28;1.40;;;22.30;81.60;;;;;;5083202;28;20512;-82
2023/01/08 09:21:45;;;;;;;5.67;1.60;;;22.20;81.80;;;;;;5079843;28;20390;-88
2023/01/08 09:24:12;;;;;;;7.65;1.67;;;22.20;82.10;;;;;;5079008;28;20461;-81
2023/01/08 09:26:39;;;;;;;5.63;1.40;;;22.10;82.50;;;;;;5082061;28;20489;-84
2023/01/08 09:29:07;;;;;;;6.45;1.67;;;22.00;83.00;;;;;;5087565;28;20384;-85
2023/01/08 09:31:34;;;;;;;6.35;1.30;;;21.80;83.50;;;;;;5082121;28;20430;-82
2023/01/08 09:34:01;;;;;;;5.93;1.40;;;21.80;84.40;;;;;;5084970;28;20385;-81
2023/01/08 09:36:29;;;;;;;5.97;1.50;;;21.70;84.70;;;;;;5083300;28;20429;-84
2023/01/08 09:38:56;;;;;;;6.43;1.30;;;21.60;85.60;;;;;;5088326;28;20372;-81
2023/01/08 09:41:30;;;;;;;5.73;1.40;;;21.50;86.10;;;;;;5085322;28;20877;-81
2023/01/08 09:44:00;;;;;;;5.03;1.35;;;21.50;86.60;;;;;;5090359;28;20717;-87
2023/01/08 09:46:28;;;;;;;4.97;1.40;;;21.40;87.30;;;;;;5087516;28;20431;-84
2023/01/08 09:49:03;;;;;;;6.88;1.50;;;21.30;87.80;;;;;;5087781;28;20378;-83
2023/01/08 09:51:34;;;;;;;5.13;1.42;;;21.30;88.70;;;;;;5066319;28;20421;-85
2023/01/08 09:54:04;;;;;;;5.93;1.48;;;21.20;89.40;;;;;;5077207;28;20394;-83
2023/01/08 09:56:34;;;;;;;8.48;1.67;;;21.20;90.20;;;;;;5075645;28;20384;-84
2023/01/08 09:59:03;;;;;;;5.95;1.45;;;21.10;90.40;;;;;;5078693;28;20385;-84
2023/01/08 10:01:36;;;;;;;4.70;1.50;;;21.00;91.00;;;;;;5085346;28;20779;-82
2023/01/08 10:04:24;;;;;;;4.80;1.23;;;21.00;91.20;;;;;;5093929;28;20364;-83
2023/01/08 10:07:09;;;;;;;7.72;1.50;;;21.00;91.60;;;;;;5061445;28;20435;-85
2023/01/08 10:09:36;;;;;;;8.32;1.52;;;20.90;91.90;;;;;;5078709;28;20408;-84
2023/01/08 10:12:05;;;;;;;5.75;1.48;;;20.80;92.50;;;;;;5078891;28;20406;-83
2023/01/08 10:14:38;;;;;;;5.50;1.45;;;20.80;93.00;;;;;;5074620;28;20413;-86
2023/01/08 10:17:09;;;;;;;7.95;1.50;;;20.70;93.40;;;;;;5075264;28;20381;-84
2023/01/08 10:19:36;;;;;;;7.50;1.60;;;20.70;94.10;;;;;;5078158;28;20388;-87
2023/01/08 10:22:09;;;;;;;7.73;1.60;;;20.60;94.60;;;;;;5086470;28;20390;-84
2023/01/08 10:24:42;;;;;;;7.20;1.43;;;20.60;95.20;;;;;;5087366;28;20384;-81
2023/01/08 10:27:14;;;;;;;6.22;1.50;;;20.60;95.80;;;;;;5068254;28;20443;-89
2023/01/08 10:29:42;;;;;;;4.43;1.48;;;20.50;96.40;;;;;;5076257;28;20394;-85
2023/01/08 10:32:24;;;;;;;7.20;1.70;;;20.40;97.00;;;;;;5082858;28;20444;-85
2023/01/08 10:34:54;;;;;;;8.00;1.60;;;20.40;97.80;;;;;;5077029;28;20789;-86
2023/01/08 10:37:35;;;;;;;5.15;1.50;;;20.30;98.40;;;;;;5080578;28;20519;-87
2023/01/08 10:40:50;;;;;;;5.68;1.60;;;20.20;98.90;;;;;;5086719;28;20360;-92
2023/01/08 10:43:30;;;;;;;6.07;1.50;;;20.20;99.30;;;;;;5048560;28;20395;-89
2023/01/08 10:46:06;;;;;;;6.78;1.60;;;20.20;99.70;;;;;;5031968;28;20380;-83
2023/01/08 10:48:50;;;;;;;5.65;1.40;;;20.10;99.90;;;;;;5031585;28;20462;-89
2023/01/08 10:51:23;;;;;;;8.50;1.67;;;20.10;99.90;;;;;;5043983;28;20415;-84
2023/01/08 10:53:51;;;;;;;14.25;1.95;;;20.00;99.90;;;;;;5035383;28;20427;-88
2023/01/08 10:56:24;;;;;;;5.15;1.60;;;19.90;99.90;;;;;;5032414;28;20464;-87
2023/01/08 10:58:52;;;;;;;6.90;1.80;;;19.90;99.90;;;;;;5051419;28;20413;-85
2023/01/08 11:01:27;;;;;;;6.13;1.60;;;19.80;99.90;;;;;;5034512;28;20431;-89
2023/01/08 11:04:01;;;;;;;5.05;1.60;;;19.80;99.90;;;;;;5032197;28;20385;-90
2023/01/08 11:06:31;;;;;;;6.93;1.80;;;19.70;99.90;;;;;;5026116;28;20475;-84
2023/01/08 11:09:04;;;;;;;4.68;1.63;;;19.70;99.90;;;;;;5037696;28;20377;-81
2023/01/08 11:11:36;;;;;;;4.50;1.60;;;19.70;99.90;;;;;;5040964;28;20405;-87
2023/01/08 11:14:13;;;;;;;6.95;1.50;;;19.60;99.90;;;;;;5039758;28;20389;-89
2023/01/08 11:16:42;;;;;;;4.63;1.48;;;19.60;99.90;;;;;;5029433;28;20411;-87
2023/01/08 11:19:25;;;;;;;5.57;1.70;;;19.50;99.90;;;;;;5047250;28;20466;-91
2023/01/08 11:22:19;;;;;;;6.30;1.60;;;19.50;99.90;;;;;;5062804;28;20833;-90
2023/01/08 11:24:47;;;;;;;5.93;1.75;;;19.40;99.90;;;;;;5061255;28;20781;-89
2023/01/08 11:27:15;;;;;;;7.03;1.70;;;19.40;99.90;;;;;;5076408;28;20374;-88
2023/01/08 11:29:45;;;;;;;6.43;1.55;;;19.30;99.90;;;;;;5073091;28;20406;-85
2023/01/08 11:32:26;;;;;;;5.07;1.60;;;19.30;99.90;;;;;;5077683;28;20406;-83
2023/01/08 11:35:14;;;;;;;5.55;1.60;;;19.20;99.90;;;;;;5083316;28;20741;-88
2023/01/08 11:37:58;;;;;;;6.35;1.77;;;19.20;99.90;;;;;;5061128;28;20393;-90
2023/01/08 11:40:46;;;;;;;5.07;1.70;;;19.20;99.90;;;;;;5077180;28;20762;-89
2023/01/08 11:43:47;;;;;;;7.72;1.88;;;19.10;99.90;;;;;;5084447;28;20376;-89
2023/01/08 11:46:38;;;;;;;6.55;1.75;;;19.00;99.90;;;;;;5087370;28;20391;-88
2023/01/08 11:49:28;;;;;;;6.68;1.88;;;18.90;99.90;;;;;;5063856;28;20465;-88
2023/01/08 11:52:08;;;;;;;7.40;2.10;;;18.80;99.90;;;;;;5072161;28;20444;-91
2023/01/08 11:54:55;;;;;;;7.85;1.90;;;18.80;99.90;;;;;;5074052;28;20387;-88
2023/01/08 11:57:44;;;;;;;7.03;1.77;;;18.70;99.90;;;;;;5013864;28;20423;-86
2023/01/08 12:00:20;;;;;;;6.53;1.88;;;18.70;99.90;;;;;;5010337;28;20425;-88
2023/01/08 12:03:00;;;;;;;5.72;1.70;;;18.70;99.90;;;;;;5010058;28;20383;-88
2023/01/08 12:05:47;;;;;;;6.20;1.80;;;18.70;99.90;;;;;;5010196;28;20476;-87
2023/01/08 12:08:26;;;;;;;7.10;1.73;;;18.60;99.90;;;;;;5009876;28;20386;-86
2023/01/08 12:11:27;;;;;;;6.30;2.08;;;18.60;99.90;;;;;;5009243;28;20403;-90
2023/01/08 12:14:00;;;;;;;7.22;1.95;;;18.60;99.90;;;;;;4990611;28;20754;-82
2023/01/08 12:17:04;;;;;;;6.93;1.98;;;18.60;99.90;;;;;;4987029;28;20392;-89
2023/01/08 12:19:46;;;;;;;6.40;1.70;;;18.60;99.90;;;;;;4991064;28;20436;-80
2023/01/08 12:22:31;;;;;;;7.17;1.73;;;18.50;99.90;;;;;;4997384;28;20393;-85
2023/01/08 12:25:09;;;;;;;6.28;1.88;;;18.50;99.90;;;;;;4996457;28;20393;-82
2023/01/08 12:27:46;;;;;;;6.07;1.80;;;18.50;99.90;;;;;;4992689;28;20393;-87
2023/01/08 12:30:32;;;;;;;4.95;1.65;;;18.50;99.90;;;;;;4990512;28;20947;-92
2023/01/08 12:33:31;;;;;;;7.65;1.90;;;18.40;99.90;;;;;;4989005;28;20416;-84
2023/01/08 12:36:03;;;;;;;7.13;2.10;;;18.40;99.90;;;;;;4970476;28;20539;-90
2023/01/08 12:38:34;;;;;;;6.63;1.87;;;18.40;99.90;;;;;;4982615;28;20410;-88
2023/01/08 12:41:08;;;;;;;5.95;1.92;;;18.50;99.90;;;;;;4987820;28;20427;-88
2023/01/08 12:43:49;;;;;;;8.57;2.10;;;18.40;99.90;;;;;;4987251;28;20501;-92
2023/01/08 12:46:18;;;;;;;5.28;1.83;;;18.40;99.90;;;;;;4981692;28;20896;-87
2023/01/08 12:48:50;;;;;;;6.78;1.73;;;18.40;99.90;;;;;;4983855;28;20471;-87
2023/01/08 12:51:33;;;;;;;5.37;1.70;;;18.40;99.90;;;;;;5025989;28;20452;-91
2023/01/08 12:54:24;;;;;;;6.90;1.92;;;18.30;99.90;;;;;;5026088;28;20396;-87
2023/01/08 12:57:26;;;;;;;8.15;1.88;;;18.30;99.90;;;;;;5026917;28;20409;-89
2023/01/08 13:00:15;;;;;;;6.10;1.80;;;18.20;99.90;;;;;;4934306;29;20835;-91
2023/01/08 13:03:03;;;;;;;5.45;1.80;;;18.20;99.90;;;;;;4927377;29;20407;-91
2023/01/08 13:05:38;;;;;;;7.07;1.88;;;18.10;99.90;;;;;;4930709;29;20408;-83
2023/01/08 13:08:19;;;;;;;8.13;2.20;;;18.20;99.90;;;;;;4933419;29;20416;-93
2023/01/08 13:10:54;;;;;;;7.53;1.83;;;18.20;99.90;;;;;;4938751;29;20394;-90